sensor_id;sensor_type;location;lat;lon;timestamp;P1;durP1;ratioP1;P2;durP2;ratioP2
26578;SDS011;14227;47.674;19.320;2022-08-01T01:30:36;3.50;;;2.55;;
26578;SDS011;14227;47.674;19.320;2022-08-01T01:33:05;3.88;;;2.50;;
26578;SDS011;14227;47.674;19.320;2022-08-01T01:35:50;3.08;;;2.00;;
26578;SDS011;14227;47.674;19.320;2022-08-01T01:38:25;4.10;;;2.30;;
26578;SDS011;14227;47.674;19.320;2022-08-01T01:40:53;4.38;;;2.50;;
26578;SDS011;14227;47.674;19.320;2022-08-01T01:43:24;4.05;;;2.40;;
26578;SDS011;14227;47.674;19.320;2022-08-01T01:46:00;3.10;;;2.30;;
26578;SDS011;14227;47.674;19.320;2022-08-01T01:48:37;2.80;;;1.90;;
26578;SDS011;14227;47.674;19.320;2022-08-01T01:51:17;3.78;;;2.65;;
26578;SDS011;14227;47.674;19.320;2022-08-01T01:53:54;2.40;;;2.03;;
26578;SDS011;14227;47.674;19.320;2022-08-01T01:56:41;5.95;;;2.33;;
26578;SDS011;14227;47.674;19.320;2022-08-01T04:01:24;15.25;;;11.18;;
26578;SDS011;14227;47.674;19.320;2022-08-01T04:03:58;13.10;;;9.52;;
26578;SDS011;14227;47.674;19.320;2022-08-01T04:09:00;32.63;;;29.30;;
26578;SDS011;14227;47.674;19.320;2022-08-01T04:11:26;27.42;;;24.63;;
26578;SDS011;14227;47.674;19.320;2022-08-01T04:13:53;27.27;;;24.58;;
26578;SDS011;14227;47.674;19.320;2022-08-01T04:16:20;18.10;;;16.15;;
26578;SDS011;14227;47.674;19.320;2022-08-01T04:18:46;16.92;;;14.10;;
26578;SDS011;14227;47.674;19.320;2022-08-01T04:21:17;10.98;;;9.82;;
26578;SDS011;14227;47.674;19.320;2022-08-01T04:23:46;9.70;;;7.97;;
26578;SDS011;14227;47.674;19.320;2022-08-01T04:26:13;9.35;;;6.55;;
26578;SDS011;14227;47.674;19.320;2022-08-01T04:28:42;9.25;;;5.00;;
26578;SDS011;14227;47.674;19.320;2022-08-01T04:31:09;5.35;;;3.88;;
26578;SDS011;14227;47.674;19.320;2022-08-01T04:33:37;6.38;;;4.38;;
26578;SDS011;14227;47.674;19.320;2022-08-01T04:36:06;3.78;;;3.13;;
26578;SDS011;14227;47.674;19.320;2022-08-01T04:38:33;11.68;;;3.55;;
26578;SDS011;14227;47.674;19.320;2022-08-01T04:41:01;8.18;;;3.60;;
26578;SDS011;14227;47.674;19.320;2022-08-01T04:43:30;4.28;;;3.72;;
26578;SDS011;14227;47.674;19.320;2022-08-01T04:45:56;4.13;;;2.80;;
26578;SDS011;14227;47.674;19.320;2022-08-01T04:48:23;6.20;;;3.92;;
26578;SDS011;14227;47.674;19.320;2022-08-01T04:50:51;4.10;;;3.22;;
26578;SDS011;14227;47.674;19.320;2022-08-01T04:53:18;3.75;;;3.40;;
26578;SDS011;14227;47.674;19.320;2022-08-01T04:55:46;8.73;;;3.20;;
26578;SDS011;14227;47.674;19.320;2022-08-01T04:58:14;4.10;;;3.22;;
26578;SDS011;14227;47.674;19.320;2022-08-01T05:00:40;3.95;;;3.20;;
26578;SDS011;14227;47.674;19.320;2022-08-01T05:03:06;4.25;;;3.13;;
26578;SDS011;14227;47.674;19.320;2022-08-01T05:05:31;8.30;;;3.40;;
26578;SDS011;14227;47.674;19.320;2022-08-01T05:07:57;5.30;;;3.25;;
26578;SDS011;14227;47.674;19.320;2022-08-01T05:10:23;5.43;;;3.28;;
26578;SDS011;14227;47.674;19.320;2022-08-01T05:12:48;5.47;;;3.30;;
26578;SDS011;14227;47.674;19.320;2022-08-01T05:15:14;5.60;;;2.75;;
26578;SDS011;14227;47.674;19.320;2022-08-01T05:17:40;7.88;;;3.72;;
26578;SDS011;14227;47.674;19.320;2022-08-01T05:20:07;6.32;;;3.10;;
26578;SDS011;14227;47.674;19.320;2022-08-01T05:22:33;3.42;;;3.13;;
26578;SDS011;14227;47.674;19.320;2022-08-01T05:24:58;4.22;;;3.47;;
26578;SDS011;14227;47.674;19.320;2022-08-01T05:27:24;5.40;;;3.15;;
26578;SDS011;14227;47.674;19.320;2022-08-01T05:29:51;6.25;;;2.85;;
26578;SDS011;14227;47.674;19.320;2022-08-01T05:32:16;10.30;;;3.35;;
26578;SDS011;14227;47.674;19.320;2022-08-01T05:34:42;4.63;;;3.00;;
26578;SDS011;14227;47.674;19.320;2022-08-01T05:37:08;6.10;;;3.40;;
26578;SDS011;14227;47.674;19.320;2022-08-01T05:39:34;3.75;;;2.90;;
26578;SDS011;14227;47.674;19.320;2022-08-01T05:42:00;7.03;;;3.40;;
26578;SDS011;14227;47.674;19.320;2022-08-01T05:44:26;4.43;;;3.10;;
26578;SDS011;14227;47.674;19.320;2022-08-01T05:46:51;7.55;;;3.47;;
26578;SDS011;14227;47.674;19.320;2022-08-01T05:49:17;4.50;;;3.60;;
26578;SDS011;14227;47.674;19.320;2022-08-01T05:51:43;6.45;;;3.65;;
26578;SDS011;14227;47.674;19.320;2022-08-01T05:54:08;5.28;;;3.60;;
26578;SDS011;14227;47.674;19.320;2022-08-01T05:56:34;4.80;;;3.05;;
26578;SDS011;14227;47.674;19.320;2022-08-01T05:59:00;4.47;;;3.33;;
26578;SDS011;14227;47.674;19.320;2022-08-01T06:01:25;5.65;;;3.20;;
26578;SDS011;14227;47.674;19.320;2022-08-01T06:03:51;6.47;;;3.13;;
26578;SDS011;14227;47.674;19.320;2022-08-01T06:06:19;6.22;;;3.00;;
26578;SDS011;14227;47.674;19.320;2022-08-01T06:11:47;6.05;;;3.38;;
26578;SDS011;14227;47.674;19.320;2022-08-01T06:14:12;4.22;;;3.17;;
26578;SDS011;14227;47.674;19.320;2022-08-01T06:16:38;6.60;;;3.55;;
26578;SDS011;14227;47.674;19.320;2022-08-01T06:19:04;5.90;;;3.33;;
26578;SDS011;14227;47.674;19.320;2022-08-01T06:21:29;6.15;;;2.90;;
26578;SDS011;14227;47.674;19.320;2022-08-01T06:23:55;6.60;;;3.15;;
26578;SDS011;14227;47.674;19.320;2022-08-01T06:26:20;8.80;;;3.60;;
26578;SDS011;14227;47.674;19.320;2022-08-01T06:28:46;8.32;;;3.20;;
26578;SDS011;14227;47.674;19.320;2022-08-01T06:31:12;12.18;;;3.92;;
26578;SDS011;14227;47.674;19.320;2022-08-01T06:37:13;6.45;;;3.22;;
26578;SDS011;14227;47.674;19.320;2022-08-01T06:39:39;6.57;;;3.22;;
26578;SDS011;14227;47.674;19.320;2022-08-01T06:42:05;9.02;;;3.20;;
26578;SDS011;14227;47.674;19.320;2022-08-01T06:44:30;3.70;;;2.67;;
26578;SDS011;14227;47.674;19.320;2022-08-01T06:46:56;3.45;;;2.85;;
26578;SDS011;14227;47.674;19.320;2022-08-01T06:49:29;3.83;;;2.90;;
26578;SDS011;14227;47.674;19.320;2022-08-01T06:58:43;6.20;;;2.58;;
26578;SDS011;14227;47.674;19.320;2022-08-01T07:01:09;5.75;;;2.78;;
26578;SDS011;14227;47.674;19.320;2022-08-01T07:03:35;10.07;;;3.13;;
26578;SDS011;14227;47.674;19.320;2022-08-01T07:06:01;4.22;;;2.60;;
26578;SDS011;14227;47.674;19.320;2022-08-01T07:11:42;3.95;;;2.80;;
26578;SDS011;14227;47.674;19.320;2022-08-01T07:14:08;7.95;;;2.50;;
26578;SDS011;14227;47.674;19.320;2022-08-01T07:16:34;5.10;;;2.97;;
26578;SDS011;14227;47.674;19.320;2022-08-01T07:19:00;3.95;;;2.70;;
26578;SDS011;14227;47.674;19.320;2022-08-01T07:21:43;11.80;;;2.90;;
26578;SDS011;14227;47.674;19.320;2022-08-01T07:24:10;14.27;;;2.93;;
26578;SDS011;14227;47.674;19.320;2022-08-01T07:30:06;5.30;;;2.80;;
26578;SDS011;14227;47.674;19.320;2022-08-01T07:32:32;3.35;;;2.47;;
26578;SDS011;14227;47.674;19.320;2022-08-01T07:34:59;3.70;;;2.80;;
26578;SDS011;14227;47.674;19.320;2022-08-01T07:37:25;6.78;;;2.70;;
26578;SDS011;14227;47.674;19.320;2022-08-01T07:39:51;4.10;;;2.42;;
26578;SDS011;14227;47.674;19.320;2022-08-01T07:42:17;4.57;;;3.00;;
26578;SDS011;14227;47.674;19.320;2022-08-01T07:44:42;5.55;;;2.70;;
26578;SDS011;14227;47.674;19.320;2022-08-01T07:47:08;3.22;;;2.53;;
26578;SDS011;14227;47.674;19.320;2022-08-01T07:49:34;6.20;;;2.42;;
26578;SDS011;14227;47.674;19.320;2022-08-01T07:52:00;3.70;;;2.75;;
26578;SDS011;14227;47.674;19.320;2022-08-01T07:54:25;3.75;;;2.50;;
26578;SDS011;14227;47.674;19.320;2022-08-01T07:56:53;5.43;;;2.63;;
26578;SDS011;14227;47.674;19.320;2022-08-01T07:59:19;3.40;;;2.58;;
26578;SDS011;14227;47.674;19.320;2022-08-01T08:01:48;4.63;;;2.72;;
26578;SDS011;14227;47.674;19.320;2022-08-01T08:04:15;3.97;;;2.75;;
26578;SDS011;14227;47.674;19.320;2022-08-01T08:06:41;5.85;;;2.33;;
26578;SDS011;14227;47.674;19.320;2022-08-01T08:09:07;6.55;;;2.05;;
26578;SDS011;14227;47.674;19.320;2022-08-01T08:11:33;3.85;;;2.08;;
26578;SDS011;14227;47.674;19.320;2022-08-01T08:13:58;3.40;;;2.50;;
26578;SDS011;14227;47.674;19.320;2022-08-01T08:16:24;3.28;;;2.20;;
26578;SDS011;14227;47.674;19.320;2022-08-01T08:18:51;3.03;;;2.55;;
26578;SDS011;14227;47.674;19.320;2022-08-01T08:21:17;6.13;;;2.45;;
26578;SDS011;14227;47.674;19.320;2022-08-01T08:23:42;2.40;;;2.08;;
26578;SDS011;14227;47.674;19.320;2022-08-01T08:28:52;3.15;;;2.25;;
26578;SDS011;14227;47.674;19.320;2022-08-01T08:31:17;2.85;;;1.90;;
26578;SDS011;14227;47.674;19.320;2022-08-01T08:33:43;5.53;;;2.65;;
26578;SDS011;14227;47.674;19.320;2022-08-01T08:36:09;3.00;;;2.22;;
26578;SDS011;14227;47.674;19.320;2022-08-01T08:38:36;8.32;;;2.20;;
26578;SDS011;14227;47.674;19.320;2022-08-01T08:41:04;2.05;;;1.85;;
26578;SDS011;14227;47.674;19.320;2022-08-01T08:43:30;4.82;;;2.28;;
26578;SDS011;14227;47.674;19.320;2022-08-01T08:45:56;3.28;;;2.03;;
26578;SDS011;14227;47.674;19.320;2022-08-01T08:48:22;4.28;;;1.80;;
26578;SDS011;14227;47.674;19.320;2022-08-01T08:50:48;2.78;;;2.33;;
26578;SDS011;14227;47.674;19.320;2022-08-01T08:53:15;2.78;;;2.25;;
26578;SDS011;14227;47.674;19.320;2022-08-01T08:55:42;8.38;;;2.13;;
26578;SDS011;14227;47.674;19.320;2022-08-01T08:58:12;3.10;;;2.15;;
26578;SDS011;14227;47.674;19.320;2022-08-01T09:00:39;5.80;;;2.03;;
26578;SDS011;14227;47.674;19.320;2022-08-01T09:03:06;6.00;;;2.08;;
26578;SDS011;14227;47.674;19.320;2022-08-01T09:05:31;4.28;;;2.00;;
26578;SDS011;14227;47.674;19.320;2022-08-01T09:07:57;7.35;;;2.10;;
26578;SDS011;14227;47.674;19.320;2022-08-01T09:10:23;4.05;;;2.35;;
26578;SDS011;14227;47.674;19.320;2022-08-01T09:13:01;6.05;;;2.10;;
26578;SDS011;14227;47.674;19.320;2022-08-01T09:18:34;6.60;;;2.15;;
26578;SDS011;14227;47.674;19.320;2022-08-01T09:23:36;3.20;;;1.73;;
26578;SDS011;14227;47.674;19.320;2022-08-01T09:26:07;4.07;;;2.10;;
26578;SDS011;14227;47.674;19.320;2022-08-01T09:31:10;2.00;;;1.80;;
26578;SDS011;14227;47.674;19.320;2022-08-01T09:36:17;2.00;;;1.80;;
26578;SDS011;14227;47.674;19.320;2022-08-01T09:38:44;3.38;;;1.88;;
26578;SDS011;14227;47.674;19.320;2022-08-01T09:41:09;4.10;;;1.88;;
26578;SDS011;14227;47.674;19.320;2022-08-01T09:43:36;8.93;;;2.00;;
26578;SDS011;14227;47.674;19.320;2022-08-01T09:46:08;9.00;;;2.00;;
26578;SDS011;14227;47.674;19.320;2022-08-01T09:48:36;5.60;;;2.00;;
26578;SDS011;14227;47.674;19.320;2022-08-01T09:51:04;4.57;;;2.33;;
26578;SDS011;14227;47.674;19.320;2022-08-01T09:53:47;3.75;;;2.25;;
26578;SDS011;14227;47.674;19.320;2022-08-01T09:56:13;4.65;;;2.17;;
26578;SDS011;14227;47.674;19.320;2022-08-01T09:58:52;3.90;;;1.90;;
26578;SDS011;14227;47.674;19.320;2022-08-01T10:01:20;2.25;;;1.95;;
26578;SDS011;14227;47.674;19.320;2022-08-01T10:03:47;6.13;;;1.95;;
26578;SDS011;14227;47.674;19.320;2022-08-01T10:06:29;3.08;;;1.90;;
26578;SDS011;14227;47.674;19.320;2022-08-01T10:08:55;8.38;;;2.00;;
26578;SDS011;14227;47.674;19.320;2022-08-01T10:11:20;5.43;;;1.90;;
26578;SDS011;14227;47.674;19.320;2022-08-01T10:13:47;8.65;;;2.03;;
26578;SDS011;14227;47.674;19.320;2022-08-01T10:16:13;4.70;;;1.80;;
26578;SDS011;14227;47.674;19.320;2022-08-01T10:18:39;6.95;;;2.10;;
26578;SDS011;14227;47.674;19.320;2022-08-01T10:21:07;5.93;;;1.90;;
26578;SDS011;14227;47.674;19.320;2022-08-01T10:23:34;4.07;;;1.90;;
26578;SDS011;14227;47.674;19.320;2022-08-01T10:26:01;2.30;;;1.60;;
26578;SDS011;14227;47.674;19.320;2022-08-01T10:28:29;7.57;;;2.08;;
26578;SDS011;14227;47.674;19.320;2022-08-01T10:30:57;5.95;;;2.28;;
26578;SDS011;14227;47.674;19.320;2022-08-01T10:33:24;2.97;;;1.98;;
26578;SDS011;14227;47.674;19.320;2022-08-01T10:35:50;5.40;;;2.10;;
26578;SDS011;14227;47.674;19.320;2022-08-01T10:38:16;2.45;;;1.73;;
26578;SDS011;14227;47.674;19.320;2022-08-01T10:40:42;5.10;;;1.80;;
26578;SDS011;14227;47.674;19.320;2022-08-01T10:43:09;3.85;;;2.17;;
26578;SDS011;14227;47.674;19.320;2022-08-01T10:45:36;4.68;;;2.10;;
26578;SDS011;14227;47.674;19.320;2022-08-01T10:50:52;4.40;;;2.17;;
26578;SDS011;14227;47.674;19.320;2022-08-01T10:53:21;8.18;;;1.80;;
26578;SDS011;14227;47.674;19.320;2022-08-01T10:55:49;2.85;;;1.98;;
26578;SDS011;14227;47.674;19.320;2022-08-01T10:58:22;4.13;;;1.95;;
26578;SDS011;14227;47.674;19.320;2022-08-01T11:00:49;4.25;;;2.28;;
26578;SDS011;14227;47.674;19.320;2022-08-01T11:03:34;3.80;;;1.67;;
26578;SDS011;14227;47.674;19.320;2022-08-01T11:06:00;4.72;;;1.80;;
26578;SDS011;14227;47.674;19.320;2022-08-01T11:08:28;4.95;;;1.80;;
26578;SDS011;14227;47.674;19.320;2022-08-01T11:11:02;5.43;;;2.08;;
26578;SDS011;14227;47.674;19.320;2022-08-01T11:14:11;4.30;;;2.08;;
26578;SDS011;14227;47.674;19.320;2022-08-01T11:16:26;4.90;;;1.83;;
26578;SDS011;14227;47.674;19.320;2022-08-01T11:18:54;4.47;;;2.00;;
26578;SDS011;14227;47.674;19.320;2022-08-01T11:21:19;4.53;;;2.03;;
26578;SDS011;14227;47.674;19.320;2022-08-01T11:23:49;4.78;;;1.73;;
26578;SDS011;14227;47.674;19.320;2022-08-01T11:26:18;3.85;;;2.00;;
26578;SDS011;14227;47.674;19.320;2022-08-01T11:28:46;9.85;;;2.35;;
26578;SDS011;14227;47.674;19.320;2022-08-01T11:31:38;4.80;;;2.20;;
26578;SDS011;14227;47.674;19.320;2022-08-01T11:34:04;9.10;;;2.30;;
26578;SDS011;14227;47.674;19.320;2022-08-01T11:36:30;6.97;;;2.53;;
26578;SDS011;14227;47.674;19.320;2022-08-01T11:41:26;5.88;;;2.40;;
26578;SDS011;14227;47.674;19.320;2022-08-01T11:44:04;2.55;;;1.88;;
26578;SDS011;14227;47.674;19.320;2022-08-01T11:47:13;5.45;;;2.20;;
26578;SDS011;14227;47.674;19.320;2022-08-01T11:52:14;2.80;;;1.83;;
26578;SDS011;14227;47.674;19.320;2022-08-01T11:57:30;3.25;;;1.77;;
26578;SDS011;14227;47.674;19.320;2022-08-01T12:00:00;4.28;;;1.98;;
26578;SDS011;14227;47.674;19.320;2022-08-01T12:02:29;5.30;;;2.03;;
26578;SDS011;14227;47.674;19.320;2022-08-01T12:05:08;4.20;;;1.98;;
26578;SDS011;14227;47.674;19.320;2022-08-01T12:07:37;7.25;;;1.88;;
26578;SDS011;14227;47.674;19.320;2022-08-01T12:12:40;5.97;;;1.92;;
26578;SDS011;14227;47.674;19.320;2022-08-01T12:15:11;3.03;;;1.67;;
26578;SDS011;14227;47.674;19.320;2022-08-01T12:20:13;3.47;;;2.40;;
26578;SDS011;14227;47.674;19.320;2022-08-01T12:22:41;3.08;;;2.30;;
26578;SDS011;14227;47.674;19.320;2022-08-01T12:25:09;2.33;;;2.13;;
26578;SDS011;14227;47.674;19.320;2022-08-01T12:27:35;3.40;;;1.95;;
26578;SDS011;14227;47.674;19.320;2022-08-01T12:30:04;4.88;;;2.30;;
26578;SDS011;14227;47.674;19.320;2022-08-01T12:32:32;2.40;;;1.80;;
26578;SDS011;14227;47.674;19.320;2022-08-01T12:35:07;1.65;;;1.55;;
26578;SDS011;14227;47.674;19.320;2022-08-01T12:37:38;4.53;;;2.25;;
26578;SDS011;14227;47.674;19.320;2022-08-01T12:40:21;2.97;;;1.92;;
26578;SDS011;14227;47.674;19.320;2022-08-01T12:42:50;4.35;;;1.90;;
26578;SDS011;14227;47.674;19.320;2022-08-01T12:45:21;2.92;;;1.92;;
26578;SDS011;14227;47.674;19.320;2022-08-01T12:47:49;5.60;;;2.33;;
26578;SDS011;14227;47.674;19.320;2022-08-01T12:50:18;4.80;;;2.10;;
26578;SDS011;14227;47.674;19.320;2022-08-01T12:52:46;4.10;;;2.30;;
26578;SDS011;14227;47.674;19.320;2022-08-01T12:55:13;6.35;;;2.45;;
26578;SDS011;14227;47.674;19.320;2022-08-01T12:57:43;7.20;;;2.47;;
26578;SDS011;14227;47.674;19.320;2022-08-01T13:00:18;4.10;;;2.00;;
26578;SDS011;14227;47.674;19.320;2022-08-01T13:02:50;2.17;;;1.98;;
26578;SDS011;14227;47.674;19.320;2022-08-01T13:05:46;2.97;;;2.20;;
26578;SDS011;14227;47.674;19.320;2022-08-01T13:08:23;5.47;;;2.50;;
26578;SDS011;14227;47.674;19.320;2022-08-01T13:11:02;4.50;;;2.45;;
26578;SDS011;14227;47.674;19.320;2022-08-01T13:13:37;4.88;;;2.20;;
26578;SDS011;14227;47.674;19.320;2022-08-01T13:18:33;8.13;;;2.47;;
26578;SDS011;14227;47.674;19.320;2022-08-01T13:21:06;4.32;;;2.17;;
26578;SDS011;14227;47.674;19.320;2022-08-01T13:23:59;4.35;;;2.05;;
26578;SDS011;14227;47.674;19.320;2022-08-01T13:29:38;4.60;;;1.95;;
26578;SDS011;14227;47.674;19.320;2022-08-01T13:34:47;5.57;;;1.88;;
26578;SDS011;14227;47.674;19.320;2022-08-01T13:37:13;4.50;;;2.08;;
26578;SDS011;14227;47.674;19.320;2022-08-01T13:39:43;2.53;;;2.10;;
26578;SDS011;14227;47.674;19.320;2022-08-01T13:42:10;2.28;;;2.00;;
26578;SDS011;14227;47.674;19.320;2022-08-01T13:44:36;2.53;;;2.25;;
26578;SDS011;14227;47.674;19.320;2022-08-01T13:47:02;3.83;;;1.95;;
26578;SDS011;14227;47.674;19.320;2022-08-01T13:49:28;4.68;;;2.30;;
26578;SDS011;14227;47.674;19.320;2022-08-01T13:51:55;3.38;;;2.17;;
26578;SDS011;14227;47.674;19.320;2022-08-01T13:54:20;4.32;;;2.20;;
26578;SDS011;14227;47.674;19.320;2022-08-01T14:00:17;7.07;;;2.10;;
26578;SDS011;14227;47.674;19.320;2022-08-01T14:03:25;3.78;;;2.03;;
26578;SDS011;14227;47.674;19.320;2022-08-01T14:06:31;2.45;;;2.20;;
26578;SDS011;14227;47.674;19.320;2022-08-01T14:13:25;6.40;;;2.35;;
26578;SDS011;14227;47.674;19.320;2022-08-01T14:38:35;3.53;;;1.80;;
26578;SDS011;14227;47.674;19.320;2022-08-01T14:48:32;2.88;;;1.63;;
26578;SDS011;14227;47.674;19.320;2022-08-01T15:06:08;1.90;;;1.60;;
26578;SDS011;14227;47.674;19.320;2022-08-01T15:08:40;2.40;;;1.70;;
26578;SDS011;14227;47.674;19.320;2022-08-01T15:11:11;3.25;;;1.70;;
26578;SDS011;14227;47.674;19.320;2022-08-01T15:16:12;1.67;;;1.40;;
26578;SDS011;14227;47.674;19.320;2022-08-01T15:24:44;2.90;;;1.60;;
26578;SDS011;14227;47.674;19.320;2022-08-01T15:27:09;2.45;;;1.80;;
26578;SDS011;14227;47.674;19.320;2022-08-01T15:29:38;3.58;;;1.60;;
26578;SDS011;14227;47.674;19.320;2022-08-01T15:32:05;2.50;;;1.50;;
26578;SDS011;14227;47.674;19.320;2022-08-01T15:34:39;2.97;;;1.73;;
26578;SDS011;14227;47.674;19.320;2022-08-01T15:37:35;2.65;;;1.83;;
26578;SDS011;14227;47.674;19.320;2022-08-01T15:40:03;5.55;;;1.75;;
26578;SDS011;14227;47.674;19.320;2022-08-01T15:42:34;2.35;;;1.67;;
26578;SDS011;14227;47.674;19.320;2022-08-01T15:45:03;2.97;;;1.73;;
26578;SDS011;14227;47.674;19.320;2022-08-01T15:47:38;1.70;;;1.60;;
26578;SDS011;14227;47.674;19.320;2022-08-01T15:50:03;1.48;;;1.38;;
26578;SDS011;14227;47.674;19.320;2022-08-01T15:52:29;2.75;;;1.63;;
26578;SDS011;14227;47.674;19.320;2022-08-01T15:54:55;2.55;;;1.90;;
26578;SDS011;14227;47.674;19.320;2022-08-01T15:57:21;2.13;;;1.67;;
26578;SDS011;14227;47.674;19.320;2022-08-01T15:59:49;5.03;;;1.80;;
26578;SDS011;14227;47.674;19.320;2022-08-01T16:02:14;5.30;;;1.60;;
26578;SDS011;14227;47.674;19.320;2022-08-01T16:04:40;4.30;;;1.75;;
26578;SDS011;14227;47.674;19.320;2022-08-01T16:07:06;3.92;;;1.50;;
26578;SDS011;14227;47.674;19.320;2022-08-01T16:09:32;3.72;;;1.65;;
26578;SDS011;14227;47.674;19.320;2022-08-01T16:11:58;4.15;;;1.70;;
26578;SDS011;14227;47.674;19.320;2022-08-01T16:14:24;2.70;;;1.75;;
26578;SDS011;14227;47.674;19.320;2022-08-01T16:16:49;4.63;;;1.63;;
26578;SDS011;14227;47.674;19.320;2022-08-01T16:19:15;18.38;;;5.15;;
26578;SDS011;14227;47.674;19.320;2022-08-01T16:21:43;5.78;;;2.20;;
26578;SDS011;14227;47.674;19.320;2022-08-01T16:24:08;4.40;;;2.33;;
26578;SDS011;14227;47.674;19.320;2022-08-01T16:26:34;7.20;;;2.92;;
26578;SDS011;14227;47.674;19.320;2022-08-01T16:28:59;2.63;;;1.80;;
26578;SDS011;14227;47.674;19.320;2022-08-01T16:31:25;1.73;;;1.60;;
26578;SDS011;14227;47.674;19.320;2022-08-01T16:33:51;2.35;;;2.00;;
26578;SDS011;14227;47.674;19.320;2022-08-01T16:36:16;3.55;;;1.98;;
26578;SDS011;14227;47.674;19.320;2022-08-01T16:38:42;4.47;;;1.80;;
26578;SDS011;14227;47.674;19.320;2022-08-01T16:41:09;1.95;;;1.65;;
26578;SDS011;14227;47.674;19.320;2022-08-01T16:43:35;2.13;;;1.67;;
26578;SDS011;14227;47.674;19.320;2022-08-01T16:46:01;6.47;;;3.00;;
26578;SDS011;14227;47.674;19.320;2022-08-01T16:48:27;5.75;;;1.90;;
26578;SDS011;14227;47.674;19.320;2022-08-01T16:50:53;4.70;;;1.60;;
26578;SDS011;14227;47.674;19.320;2022-08-01T16:53:19;5.10;;;2.95;;
26578;SDS011;14227;47.674;19.320;2022-08-01T16:55:46;2.35;;;2.00;;
26578;SDS011;14227;47.674;19.320;2022-08-01T16:58:12;1.92;;;1.80;;
26578;SDS011;14227;47.674;19.320;2022-08-01T17:00:39;2.05;;;1.45;;
26578;SDS011;14227;47.674;19.320;2022-08-01T17:03:07;2.60;;;1.90;;
26578;SDS011;14227;47.674;19.320;2022-08-01T17:05:38;3.53;;;1.60;;
26578;SDS011;14227;47.674;19.320;2022-08-01T17:11:11;3.60;;;2.05;;
26578;SDS011;14227;47.674;19.320;2022-08-01T17:13:36;3.90;;;1.67;;
26578;SDS011;14227;47.674;19.320;2022-08-01T17:16:02;2.60;;;2.17;;
26578;SDS011;14227;47.674;19.320;2022-08-01T17:18:29;6.13;;;1.98;;
26578;SDS011;14227;47.674;19.320;2022-08-01T17:20:55;1.98;;;1.70;;
26578;SDS011;14227;47.674;19.320;2022-08-01T17:23:21;2.78;;;1.70;;
26578;SDS011;14227;47.674;19.320;2022-08-01T17:25:46;3.15;;;2.00;;
26578;SDS011;14227;47.674;19.320;2022-08-01T17:28:12;5.25;;;2.00;;
26578;SDS011;14227;47.674;19.320;2022-08-01T17:30:38;2.45;;;1.60;;
26578;SDS011;14227;47.674;19.320;2022-08-01T17:33:04;3.58;;;1.70;;
26578;SDS011;14227;47.674;19.320;2022-08-01T17:35:30;4.15;;;1.70;;
26578;SDS011;14227;47.674;19.320;2022-08-01T17:37:56;2.10;;;1.70;;
26578;SDS011;14227;47.674;19.320;2022-08-01T17:40:21;5.63;;;2.00;;
26578;SDS011;14227;47.674;19.320;2022-08-01T17:42:47;2.47;;;1.95;;
26578;SDS011;14227;47.674;19.320;2022-08-01T17:45:13;2.83;;;1.70;;
26578;SDS011;14227;47.674;19.320;2022-08-01T17:47:39;3.03;;;1.98;;
26578;SDS011;14227;47.674;19.320;2022-08-01T17:50:11;2.63;;;2.03;;
26578;SDS011;14227;47.674;19.320;2022-08-01T17:52:37;4.45;;;1.88;;
26578;SDS011;14227;47.674;19.320;2022-08-01T17:55:03;5.22;;;1.95;;
26578;SDS011;14227;47.674;19.320;2022-08-01T17:57:29;3.88;;;2.00;;
26578;SDS011;14227;47.674;19.320;2022-08-01T17:59:55;3.38;;;2.20;;
26578;SDS011;14227;47.674;19.320;2022-08-01T18:02:22;10.48;;;2.20;;
26578;SDS011;14227;47.674;19.320;2022-08-01T18:04:49;4.47;;;1.83;;
26578;SDS011;14227;47.674;19.320;2022-08-01T18:07:16;4.43;;;2.40;;
26578;SDS011;14227;47.674;19.320;2022-08-01T18:09:45;2.95;;;2.20;;
26578;SDS011;14227;47.674;19.320;2022-08-01T18:12:12;4.75;;;1.92;;
26578;SDS011;14227;47.674;19.320;2022-08-01T18:14:38;3.17;;;2.20;;
26578;SDS011;14227;47.674;19.320;2022-08-01T18:17:04;3.47;;;2.00;;
26578;SDS011;14227;47.674;19.320;2022-08-01T18:19:30;2.40;;;2.20;;
26578;SDS011;14227;47.674;19.320;2022-08-01T18:21:55;3.08;;;2.20;;
26578;SDS011;14227;47.674;19.320;2022-08-01T18:24:21;2.15;;;2.00;;
26578;SDS011;14227;47.674;19.320;2022-08-01T18:26:48;5.60;;;1.95;;
26578;SDS011;14227;47.674;19.320;2022-08-01T18:29:15;3.72;;;2.25;;
26578;SDS011;14227;47.674;19.320;2022-08-01T18:31:42;6.03;;;2.58;;
26578;SDS011;14227;47.674;19.320;2022-08-01T18:34:07;2.60;;;2.05;;
26578;SDS011;14227;47.674;19.320;2022-08-01T18:36:33;3.72;;;1.92;;
26578;SDS011;14227;47.674;19.320;2022-08-01T18:39:06;3.55;;;2.03;;
26578;SDS011;14227;47.674;19.320;2022-08-01T18:41:32;6.50;;;2.05;;
26578;SDS011;14227;47.674;19.320;2022-08-01T18:43:59;8.25;;;2.58;;
26578;SDS011;14227;47.674;19.320;2022-08-01T18:46:25;6.68;;;2.45;;
26578;SDS011;14227;47.674;19.320;2022-08-01T18:48:50;3.78;;;2.58;;
26578;SDS011;14227;47.674;19.320;2022-08-01T18:51:16;4.03;;;2.53;;
26578;SDS011;14227;47.674;19.320;2022-08-01T18:53:42;4.80;;;3.20;;
26578;SDS011;14227;47.674;19.320;2022-08-01T18:56:07;6.68;;;4.25;;
26578;SDS011;14227;47.674;19.320;2022-08-01T18:58:40;7.38;;;3.88;;
26578;SDS011;14227;47.674;19.320;2022-08-01T19:01:08;7.63;;;3.17;;
26578;SDS011;14227;47.674;19.320;2022-08-01T19:03:34;9.07;;;3.50;;
26578;SDS011;14227;47.674;19.320;2022-08-01T19:06:01;6.85;;;3.42;;
26578;SDS011;14227;47.674;19.320;2022-08-01T19:08:30;6.55;;;3.58;;
26578;SDS011;14227;47.674;19.320;2022-08-01T19:10:56;7.10;;;3.90;;
26578;SDS011;14227;47.674;19.320;2022-08-01T19:13:23;5.43;;;3.85;;
26578;SDS011;14227;47.674;19.320;2022-08-01T19:15:52;5.63;;;3.72;;
26578;SDS011;14227;47.674;19.320;2022-08-01T19:18:18;5.53;;;3.90;;
26578;SDS011;14227;47.674;19.320;2022-08-01T19:20:44;6.38;;;4.25;;
26578;SDS011;14227;47.674;19.320;2022-08-01T19:23:12;6.68;;;4.40;;
26578;SDS011;14227;47.674;19.320;2022-08-01T19:26:03;5.05;;;3.75;;
26578;SDS011;14227;47.674;19.320;2022-08-01T19:28:38;7.57;;;4.20;;
26578;SDS011;14227;47.674;19.320;2022-08-01T19:31:38;5.45;;;3.83;;
26578;SDS011;14227;47.674;19.320;2022-08-01T19:34:17;5.28;;;3.20;;
26578;SDS011;14227;47.674;19.320;2022-08-01T19:36:44;4.32;;;3.33;;
26578;SDS011;14227;47.674;19.320;2022-08-01T19:39:13;4.00;;;3.60;;
26578;SDS011;14227;47.674;19.320;2022-08-01T19:41:54;7.35;;;3.40;;
26578;SDS011;14227;47.674;19.320;2022-08-01T19:44:22;7.38;;;3.72;;
26578;SDS011;14227;47.674;19.320;2022-08-01T19:47:22;6.10;;;3.45;;
26578;SDS011;14227;47.674;19.320;2022-08-01T19:53:13;4.85;;;3.42;;
26578;SDS011;14227;47.674;19.320;2022-08-01T19:55:50;6.95;;;3.63;;
26578;SDS011;14227;47.674;19.320;2022-08-01T19:58:58;3.28;;;3.03;;
26578;SDS011;14227;47.674;19.320;2022-08-01T20:01:27;4.32;;;2.88;;
26578;SDS011;14227;47.674;19.320;2022-08-01T20:03:53;4.35;;;3.50;;
26578;SDS011;14227;47.674;19.320;2022-08-01T20:09:51;5.68;;;3.50;;
26578;SDS011;14227;47.674;19.320;2022-08-01T20:12:19;4.93;;;3.20;;
26578;SDS011;14227;47.674;19.320;2022-08-01T20:14:49;5.03;;;3.50;;
26578;SDS011;14227;47.674;19.320;2022-08-01T20:17:18;5.70;;;3.33;;
26578;SDS011;14227;47.674;19.320;2022-08-01T20:19:44;7.22;;;3.40;;
26578;SDS011;14227;47.674;19.320;2022-08-01T20:22:11;3.20;;;2.90;;
26578;SDS011;14227;47.674;19.320;2022-08-01T20:24:41;5.72;;;3.22;;
26578;SDS011;14227;47.674;19.320;2022-08-01T20:27:12;4.70;;;3.20;;